Terminal Aerodrome Forecast
Issued by NWS

Home | Current Version | Previous Version | Text Only | Print | Product List | Glossary On
Versions: 1 2 3 4 5 6 7 8 9 10 11 12 13 14 15 16
435
FTAK31 PAJN 282325
TAFASI
TAF
PASI 282325Z 2900/2924 30008KT P6SM FEW060 BKN150
     FM291000 VRB04KT 6SM BCFG SCT004
     FM291500 12004KT 6SM -DZ BKN004 OVC200
     FM291900 16010KT P6SM FEW004 BKN120 BKN200=

USA.gov is the U.S. government's official web portal to all federal, state and local government web resources and services.